Hellas Glory — 9HWN9 — position and weather

sailwx.info

Track history (hours):
 
Tides and Currents Weather Stations Pressure Air Temp Water Temp Dewpoint Dewpoint Depression Visibility Wind Speed Wind Dir Waves Ship Positions

Hellas Glory

Last reported at 2015-Feb-26 07:23 UTC. Time now 2015-Feb-27 11:40 UTC.
Position N 21°48' E 113°14'.

Length 225 m; draft 7.6 m.

Type: Tanker. MMSI: 249636000.

Date/timePositionNaut miles runAvg speedWind from/ knotsBaromVisibWave heightAir tempDewpointWater temp
2015-Feb-26 07:23N 21°48' E 113°14'7 8.3
2015-Feb-26 06:33N 21°55' E 113°13'0 0.2
2015-Feb-26 05:26N 21°55' E 113°13'0 0.0
2015-Feb-26 04:20N 21°55' E 113°13'0 0.0
2015-Feb-26 03:32N 21°55' E 113°13'0 0.0
2015-Feb-26 02:32N 21°55' E 113°13'0 0.0
2015-Feb-26 01:32N 21°55' E 113°13'0 0.0
2015-Feb-26 00:32N 21°55' E 113°13'0 0.0
2015-Feb-25 23:26N 21°55' E 113°13'0 0.0
2015-Feb-25 22:32N 21°55' E 113°13'0 0.0
2015-Feb-25 21:32N 21°55' E 113°13'0 0.0
2015-Feb-25 20:14N 21°55' E 113°13'0 0.0
2015-Feb-25 19:26N 21°55' E 113°13'0 0.0
2015-Feb-25 18:32N 21°55' E 113°13'0 0.0
2015-Feb-25 17:32N 21°55' E 113°13'0 0.0
2015-Feb-25 16:20N 21°55' E 113°13'0 0.0
2015-Feb-25 15:26N 21°55' E 113°13'0 0.0
2015-Feb-25 14:32N 21°55' E 113°13'0 0.0
2015-Feb-25 13:32N 21°55' E 113°13'0 0.0
2015-Feb-25 12:32N 21°55' E 113°13'0 0.0
2015-Feb-25 11:32N 21°55' E 113°13'0 0.0
2015-Feb-25 10:20N 21°55' E 113°13'0 0.0
2015-Feb-25 09:32N 21°55' E 113°13'0 0.0
2015-Feb-25 08:26N 21°55' E 113°13'0 0.0
2015-Feb-25 07:32N 21°55' E 113°13'0 0.0
2015-Feb-25 06:32N 21°55' E 113°13'0 0.0
2015-Feb-25 05:20N 21°55' E 113°13'0 0.0
2015-Feb-25 04:32N 21°55' E 113°13'0 0.0
2015-Feb-25 03:32N 21°55' E 113°13'0 0.0
2015-Feb-25 02:32N 21°55' E 113°13'0 0.0
2015-Feb-25 01:32N 21°55' E 113°13'0 0.0
2015-Feb-25 00:26N 21°55' E 113°13'0 0.0
2015-Feb-24 23:31N 21°55' E 113°13'0 0.0
2015-Feb-24 22:20N 21°55' E 113°13'0 0.0
2015-Feb-24 21:26N 21°55' E 113°13'0 0.0
2015-Feb-24 20:31N 21°55' E 113°13'0 0.0
2015-Feb-24 19:32N 21°55' E 113°13'0 0.0
2015-Feb-24 18:26N 21°55' E 113°13'0 0.0
2015-Feb-24 17:19N 21°55' E 113°13'0 0.0
2015-Feb-24 16:31N 21°55' E 113°13'0 0.0
2015-Feb-24 15:32N 21°55' E 113°13'0 0.0
2015-Feb-24 14:31N 21°55' E 113°13'0 0.0
2015-Feb-24 12:25N 21°55' E 113°13'0 0.0
2015-Feb-24 11:32N 21°55' E 113°13'0 0.0
2015-Feb-24 10:14N 21°55' E 113°13'0 0.0
2015-Feb-24 09:25N 21°55' E 113°13'0 0.0
2015-Feb-24 08:14N 21°55' E 113°13'0 0.0
2015-Feb-24 07:31N 21°55' E 113°13'0 0.0
2015-Feb-24 06:25N 21°55' E 113°13'0 0.0
2015-Feb-24 05:32N 21°55' E 113°13'0 0.0
2015-Feb-24 04:31N 21°55' E 113°13'0 0.0
2015-Feb-24 03:31N 21°55' E 113°13'0 0.0
2015-Feb-24 02:31N 21°55' E 113°13'0 0.0
2015-Feb-24 01:31N 21°55' E 113°13'0 0.0
2015-Feb-24 00:31N 21°55' E 113°13'0 0.0
2015-Feb-23 23:25N 21°55' E 113°13'0 0.0
2015-Feb-23 22:31N 21°55' E 113°13'0 0.0
2015-Feb-23 21:25N 21°55' E 113°13'0 0.0
2015-Feb-23 20:31N 21°55' E 113°13'0 0.0
2015-Feb-23 19:31N 21°55' E 113°13'0 0.0
2015-Feb-23 18:31N 21°55' E 113°13'0 0.0
2015-Feb-23 17:31N 21°55' E 113°13'0 0.0
2015-Feb-23 16:19N 21°55' E 113°13'0 0.0
2015-Feb-23 15:31N 21°55' E 113°13'0 0.0
2015-Feb-23 14:25N 21°55' E 113°13'0 0.0
2015-Feb-23 13:31N 21°55' E 113°13'0 0.0
2015-Feb-23 12:25N 21°55' E 113°13'0 0.0
2015-Feb-23 11:31N 21°55' E 113°13'0 0.0
2015-Feb-23 10:25N 21°55' E 113°13'0 0.0
2015-Feb-23 09:31N 21°55' E 113°13'2 2.1
2015-Feb-23 08:33N 21°53' E 113°13'5 5.3
2015-Feb-23 07:33N 21°48' E 113°14'3 3.1
2015-Feb-23 06:33N 21°45' E 113°15'  
Track history (hours):
 
Tides and Currents Weather Stations Pressure Air Temp Water Temp Dewpoint Dewpoint Depression Visibility Wind Speed Wind Dir Waves Ship Positions

Hellas Glory

Last reported at 2015-Feb-26 07:23 UTC. Time now 2015-Feb-27 11:40 UTC.
Position N 21°48' E 113°14'.

Length 225 m; draft 7.6 m.

Type: Tanker. MMSI: 249636000.

Date/timePositionNaut miles runAvg speedWind from/ knotsBaromVisibWave heightAir tempDewpointWater temp
2015-Feb-26 07:23N 21°48' E 113°14'7 8.3
2015-Feb-26 06:33N 21°55' E 113°13'0 0.2
2015-Feb-26 05:26N 21°55' E 113°13'0 0.0
2015-Feb-26 04:20N 21°55' E 113°13'0 0.0
2015-Feb-26 03:32N 21°55' E 113°13'0 0.0
2015-Feb-26 02:32N 21°55' E 113°13'0 0.0
2015-Feb-26 01:32N 21°55' E 113°13'0 0.0
2015-Feb-26 00:32N 21°55' E 113°13'0 0.0
2015-Feb-25 23:26N 21°55' E 113°13'0 0.0
2015-Feb-25 22:32N 21°55' E 113°13'0 0.0
2015-Feb-25 21:32N 21°55' E 113°13'0 0.0
2015-Feb-25 20:14N 21°55' E 113°13'0 0.0
2015-Feb-25 19:26N 21°55' E 113°13'0 0.0
2015-Feb-25 18:32N 21°55' E 113°13'0 0.0
2015-Feb-25 17:32N 21°55' E 113°13'0 0.0
2015-Feb-25 16:20N 21°55' E 113°13'0 0.0
2015-Feb-25 15:26N 21°55' E 113°13'0 0.0
2015-Feb-25 14:32N 21°55' E 113°13'0 0.0
2015-Feb-25 13:32N 21°55' E 113°13'0 0.0
2015-Feb-25 12:32N 21°55' E 113°13'0 0.0
2015-Feb-25 11:32N 21°55' E 113°13'0 0.0
2015-Feb-25 10:20N 21°55' E 113°13'0 0.0
2015-Feb-25 09:32N 21°55' E 113°13'0 0.0
2015-Feb-25 08:26N 21°55' E 113°13'0 0.0
2015-Feb-25 07:32N 21°55' E 113°13'0 0.0
2015-Feb-25 06:32N 21°55' E 113°13'0 0.0
2015-Feb-25 05:20N 21°55' E 113°13'0 0.0
2015-Feb-25 04:32N 21°55' E 113°13'0 0.0
2015-Feb-25 03:32N 21°55' E 113°13'0 0.0
2015-Feb-25 02:32N 21°55' E 113°13'0 0.0
2015-Feb-25 01:32N 21°55' E 113°13'0 0.0
2015-Feb-25 00:26N 21°55' E 113°13'0 0.0
2015-Feb-24 23:31N 21°55' E 113°13'0 0.0
2015-Feb-24 22:20N 21°55' E 113°13'0 0.0
2015-Feb-24 21:26N 21°55' E 113°13'0 0.0
2015-Feb-24 20:31N 21°55' E 113°13'0 0.0
2015-Feb-24 19:32N 21°55' E 113°13'0 0.0
2015-Feb-24 18:26N 21°55' E 113°13'0 0.0
2015-Feb-24 17:19N 21°55' E 113°13'0 0.0
2015-Feb-24 16:31N 21°55' E 113°13'0 0.0
2015-Feb-24 15:32N 21°55' E 113°13'0 0.0
2015-Feb-24 14:31N 21°55' E 113°13'0 0.0
2015-Feb-24 12:25N 21°55' E 113°13'0 0.0
2015-Feb-24 11:32N 21°55' E 113°13'0 0.0
2015-Feb-24 10:14N 21°55' E 113°13'0 0.0
2015-Feb-24 09:25N 21°55' E 113°13'0 0.0
2015-Feb-24 08:14N 21°55' E 113°13'0 0.0
2015-Feb-24 07:31N 21°55' E 113°13'0 0.0
2015-Feb-24 06:25N 21°55' E 113°13'0 0.0
2015-Feb-24 05:32N 21°55' E 113°13'0 0.0
2015-Feb-24 04:31N 21°55' E 113°13'0 0.0
2015-Feb-24 03:31N 21°55' E 113°13'0 0.0
2015-Feb-24 02:31N 21°55' E 113°13'0 0.0
2015-Feb-24 01:31N 21°55' E 113°13'0 0.0
2015-Feb-24 00:31N 21°55' E 113°13'0 0.0
2015-Feb-23 23:25N 21°55' E 113°13'0 0.0
2015-Feb-23 22:31N 21°55' E 113°13'0 0.0
2015-Feb-23 21:25N 21°55' E 113°13'0 0.0
2015-Feb-23 20:31N 21°55' E 113°13'0 0.0
2015-Feb-23 19:31N 21°55' E 113°13'0 0.0
2015-Feb-23 18:31N 21°55' E 113°13'0 0.0
2015-Feb-23 17:31N 21°55' E 113°13'0 0.0
2015-Feb-23 16:19N 21°55' E 113°13'0 0.0
2015-Feb-23 15:31N 21°55' E 113°13'0 0.0
2015-Feb-23 14:25N 21°55' E 113°13'0 0.0
2015-Feb-23 13:31N 21°55' E 113°13'0 0.0
2015-Feb-23 12:25N 21°55' E 113°13'0 0.0
2015-Feb-23 11:31N 21°55' E 113°13'0 0.0
2015-Feb-23 10:25N 21°55' E 113°13'0 0.0
2015-Feb-23 09:31N 21°55' E 113°13'2 2.1
2015-Feb-23 08:33N 21°53' E 113°13'5 5.3
2015-Feb-23 07:33N 21°48' E 113°14'3 3.1
2015-Feb-23 06:33N 21°45' E 113°15'  

Dump ship's entire track history